Time;durP1;ratioP1;P1;durP2;ratioP2;P2;SDS_P1;SDS_P2;PMS_P1;PMS_P2;Temp;Humidity;BMP_temperature;BMP_pressure;BME280_temperature;BME280_humidity;BME280_pressure;Samples;Min_cycle;Max_cycle;Signal;HPM_P1;HPM_P2
2022/01/01 00:02:22;;;;;;;13.95;7.40;;;15.00;68.40;;;;;;5088072;28;20054;-67
2022/01/01 00:04:48;;;;;;;9.27;6.05;;;15.00;68.40;;;;;;5087189;28;20114;-67
2022/01/01 00:07:17;;;;;;;10.75;7.32;;;15.00;68.40;;;;;;5088316;28;20032;-67
2022/01/01 00:09:43;;;;;;;9.82;6.60;;;15.00;68.40;;;;;;5088101;28;20541;-67
2022/01/01 00:12:10;;;;;;;12.32;7.10;;;15.00;68.40;;;;;;5087066;28;20124;-67
2022/01/01 00:14:36;;;;;;;11.77;6.45;;;15.00;68.40;;;;;;5074796;28;20051;-67
2022/01/01 00:17:03;;;;;;;11.15;7.15;;;15.00;69.10;;;;;;5073360;28;20119;-67
2022/01/01 00:19:31;;;;;;;9.75;6.97;;;15.00;68.40;;;;;;5073197;28;20440;-67
2022/01/01 00:21:57;;;;;;;12.60;7.18;;;15.00;68.40;;;;;;5073340;28;20399;-67
2022/01/01 00:24:23;;;;;;;10.32;6.72;;;15.00;68.40;;;;;;5073500;28;20044;-67
2022/01/01 00:26:48;;;;;;;9.80;6.50;;;15.00;68.40;;;;;;5074347;28;20511;-68
2022/01/01 00:29:14;;;;;;;8.60;6.35;;;15.00;68.40;;;;;;5073104;28;20055;-67
2022/01/01 00:31:43;;;;;;;9.23;7.00;;;15.00;68.40;;;;;;5073306;28;20051;-67
2022/01/01 00:34:09;;;;;;;10.95;7.63;;;15.00;68.40;;;;;;5073192;28;20056;-67
2022/01/01 00:36:38;;;;;;;13.02;7.93;;;15.00;68.40;;;;;;5073167;28;20040;-67
2022/01/01 00:39:05;;;;;;;10.80;7.30;;;14.90;68.30;;;;;;5073214;28;20051;-67
2022/01/01 00:41:31;;;;;;;16.30;8.45;;;15.00;68.40;;;;;;5073968;28;20049;-67
2022/01/01 00:43:57;;;;;;;12.05;7.88;;;15.00;68.40;;;;;;5074334;28;20056;-67
2022/01/01 00:46:22;;;;;;;12.00;8.55;;;14.90;68.30;;;;;;5074092;28;20033;-67
2022/01/01 00:48:48;;;;;;;14.23;10.32;;;14.90;68.30;;;;;;5074080;28;20373;-67
2022/01/01 00:51:14;;;;;;;15.23;10.23;;;14.90;68.30;;;;;;5072816;28;20472;-67
2022/01/01 00:53:39;;;;;;;13.05;8.68;;;14.90;68.30;;;;;;5072932;28;20066;-67
2022/01/01 00:56:05;;;;;;;15.52;8.85;;;14.90;68.30;;;;;;5073702;28;20511;-67
2022/01/01 00:58:31;;;;;;;15.32;9.93;;;14.90;68.40;;;;;;5073817;28;20047;-67
2022/01/01 01:00:56;;;;;;;16.10;10.30;;;14.90;68.30;;;;;;5072543;28;20036;-67
2022/01/01 01:03:22;;;;;;;14.40;10.00;;;14.90;68.30;;;;;;5072446;28;20130;-67
2022/01/01 01:05:48;;;;;;;12.13;9.55;;;14.90;68.30;;;;;;5072357;28;20048;-67
2022/01/01 01:08:16;;;;;;;14.90;10.40;;;14.90;68.30;;;;;;5072265;28;20072;-69
2022/01/01 01:10:45;;;;;;;13.63;11.27;;;14.90;68.30;;;;;;5072399;28;20063;-67
2022/01/01 01:13:13;;;;;;;16.45;10.57;;;14.90;68.30;;;;;;5073470;28;20044;-67
2022/01/01 01:15:38;;;;;;;13.18;10.60;;;14.90;68.30;;;;;;5073503;28;20047;-67
2022/01/01 01:18:04;;;;;;;17.00;10.82;;;14.90;68.30;;;;;;5072127;28;20423;-67
2022/01/01 01:20:31;;;;;;;16.48;11.43;;;14.90;68.30;;;;;;5073499;28;20068;-67
2022/01/01 01:22:57;;;;;;;15.65;11.05;;;14.90;68.40;;;;;;5072005;28;20131;-67
2022/01/01 01:25:29;;;;;;;15.68;11.50;;;14.90;68.30;;;;;;5071116;28;20132;-67
2022/01/01 01:27:55;;;;;;;13.93;11.77;;;14.90;69.10;;;;;;5073182;28;20043;-67
2022/01/01 01:30:22;;;;;;;16.45;12.18;;;14.90;68.30;;;;;;5071935;28;20440;-71
2022/01/01 01:32:48;;;;;;;14.25;11.13;;;14.90;68.30;;;;;;5071837;28;20115;-67
2022/01/01 01:35:14;;;;;;;14.30;11.52;;;14.80;68.30;;;;;;5071800;28;20131;-67
2022/01/01 01:37:41;;;;;;;18.30;12.48;;;14.90;68.40;;;;;;5071922;28;20048;-67
2022/01/01 01:40:08;;;;;;;16.88;12.45;;;14.80;68.30;;;;;;5071991;28;20048;-67
2022/01/01 01:42:34;;;;;;;20.05;13.43;;;14.80;68.30;;;;;;5071597;28;20044;-67
2022/01/01 01:45:03;;;;;;;19.10;13.18;;;14.80;68.30;;;;;;5072879;28;20064;-67
2022/01/01 01:47:30;;;;;;;20.73;15.00;;;14.80;68.30;;;;;;5071471;28;20048;-67
2022/01/01 01:50:00;;;;;;;21.33;14.80;;;14.80;68.30;;;;;;5071818;28;20387;-67
2022/01/01 01:52:31;;;;;;;21.15;14.23;;;14.90;68.30;;;;;;5071652;28;20119;-67
2022/01/01 01:54:57;;;;;;;18.45;12.85;;;14.90;68.30;;;;;;5072743;28;20174;-67
2022/01/01 01:57:25;;;;;;;19.15;14.75;;;14.90;68.30;;;;;;5072640;28;20051;-67
2022/01/01 01:59:52;;;;;;;22.80;15.20;;;14.80;68.30;;;;;;5071601;28;20094;-67
2022/01/01 02:02:17;;;;;;;19.08;13.85;;;14.90;68.40;;;;;;5072277;28;20051;-68
2022/01/01 02:04:46;;;;;;;20.60;14.60;;;14.90;68.30;;;;;;5072510;28;20036;-68
2022/01/01 02:07:12;;;;;;;19.42;14.82;;;14.80;68.30;;;;;;5071579;28;20040;-68
2022/01/01 02:09:39;;;;;;;21.30;13.15;;;14.80;68.20;;;;;;5070988;28;20496;-67
2022/01/01 02:12:08;;;;;;;22.50;15.60;;;14.80;68.20;;;;;;5071438;28;20067;-67
2022/01/01 02:17:38;;;;;;;20.27;14.53;;;14.80;68.20;;;;;;5152573;27;1171409;-67
2022/01/01 02:20:09;;;;;;;22.58;15.70;;;14.80;68.20;;;;;;5152950;27;20276;-67
2022/01/01 02:22:37;;;;;;;20.73;15.40;;;14.80;68.20;;;;;;5153320;27;20050;-67
2022/01/01 02:25:06;;;;;;;22.42;15.90;;;14.80;68.20;;;;;;5153293;27;20385;-67
2022/01/01 02:27:32;;;;;;;22.80;17.88;;;14.80;68.20;;;;;;5153246;27;20038;-67
2022/01/01 02:29:57;;;;;;;19.77;15.43;;;14.80;68.20;;;;;;5152873;27;20041;-67
2022/01/01 02:32:23;;;;;;;20.98;16.05;;;14.80;68.20;;;;;;5152917;27;20072;-67
2022/01/01 02:34:49;;;;;;;26.13;17.98;;;14.80;68.20;;;;;;5171415;27;20290;-67
2022/01/01 02:37:14;;;;;;;26.33;18.02;;;14.80;68.30;;;;;;5152048;27;20141;-67
2022/01/01 02:39:40;;;;;;;22.27;17.80;;;14.80;68.20;;;;;;5171531;27;20073;-67
2022/01/01 02:42:11;;;;;;;25.00;18.90;;;14.80;68.20;;;;;;5152736;27;20063;-67
2022/01/01 02:44:37;;;;;;;25.40;17.98;;;14.80;68.20;;;;;;5152545;27;20049;-67
2022/01/01 02:47:06;;;;;;;24.65;18.48;;;14.80;68.20;;;;;;5152615;27;20039;-67
2022/01/01 02:49:31;;;;;;;24.90;16.95;;;14.80;68.20;;;;;;5152681;27;20046;-67
2022/01/01 02:51:57;;;;;;;23.55;18.17;;;14.80;68.20;;;;;;5171182;27;20493;-67
2022/01/01 02:54:22;;;;;;;23.65;18.55;;;14.80;68.20;;;;;;5152453;27;20066;-68
2022/01/01 02:56:49;;;;;;;29.52;21.80;;;14.80;68.20;;;;;;5171059;27;20083;-67
2022/01/01 02:59:15;;;;;;;28.27;21.83;;;14.80;68.20;;;;;;5152585;27;20050;-68
2022/01/01 03:01:41;;;;;;;24.58;19.05;;;14.80;68.20;;;;;;5152585;27;20107;-67
2022/01/01 03:04:06;;;;;;;30.10;20.90;;;14.80;68.20;;;;;;5152608;27;20074;-67
2022/01/01 03:06:32;;;;;;;26.88;20.27;;;14.80;68.20;;;;;;5170725;27;20481;-67
2022/01/01 03:08:58;;;;;;;26.98;20.48;;;14.80;68.20;;;;;;5170780;27;20034;-67
2022/01/01 03:11:23;;;;;;;27.38;21.10;;;14.80;68.20;;;;;;5170656;27;20470;-67
2022/01/01 03:13:49;;;;;;;24.52;20.85;;;14.80;68.20;;;;;;5170795;27;20080;-67
2022/01/01 03:16:15;;;;;;;30.65;21.38;;;14.80;68.20;;;;;;5151551;27;20060;-67
2022/01/01 03:18:41;;;;;;;27.67;20.90;;;14.80;68.20;;;;;;5170580;27;20038;-67
2022/01/01 03:21:07;;;;;;;26.05;20.75;;;14.80;68.20;;;;;;5152145;27;20050;-67
2022/01/01 03:23:33;;;;;;;27.25;21.92;;;14.80;68.90;;;;;;5151862;27;20454;-67
2022/01/01 03:25:59;;;;;;;30.52;22.35;;;14.80;68.10;;;;;;5151955;27;20050;-67
2022/01/01 03:28:26;;;;;;;27.92;20.35;;;14.80;68.10;;;;;;5141486;27;20394;-67
2022/01/01 03:30:52;;;;;;;29.58;21.08;;;14.80;68.10;;;;;;5137914;27;20488;-67
2022/01/01 03:33:18;;;;;;;25.83;21.20;;;14.80;68.10;;;;;;5137906;27;20073;-67
2022/01/01 03:35:44;;;;;;;26.55;21.25;;;14.80;68.10;;;;;;5137831;27;20043;-68
2022/01/01 03:38:09;;;;;;;28.98;20.67;;;14.80;68.00;;;;;;5137847;27;20080;-67
2022/01/01 03:40:35;;;;;;;31.08;22.98;;;14.80;68.00;;;;;;5137772;27;20079;-67
2022/01/01 03:43:03;;;;;;;29.10;23.02;;;14.80;68.00;;;;;;5121072;27;20043;-67
2022/01/01 03:45:29;;;;;;;27.45;21.25;;;14.80;68.10;;;;;;5137916;27;20497;-67
2022/01/01 03:47:54;;;;;;;27.95;21.73;;;14.80;68.00;;;;;;5156092;27;20049;-67
2022/01/01 03:50:20;;;;;;;30.77;22.60;;;14.80;68.00;;;;;;5137736;27;20030;-67
2022/01/01 03:52:46;;;;;;;27.98;22.58;;;14.80;68.00;;;;;;5156586;27;20347;-67
2022/01/01 03:55:15;;;;;;;28.10;22.83;;;14.80;68.00;;;;;;5137425;27;20084;-67
2022/01/01 03:57:40;;;;;;;23.30;20.80;;;14.80;68.00;;;;;;5156009;27;20039;-67
2022/01/01 04:00:09;;;;;;;29.33;22.52;;;14.80;68.00;;;;;;5137379;27;20450;-67
2022/01/01 04:02:35;;;;;;;28.35;21.70;;;14.80;68.00;;;;;;5137545;27;20035;-67
2022/01/01 04:05:01;;;;;;;28.10;21.55;;;14.80;68.00;;;;;;5155905;27;20194;-67
2022/01/01 04:07:26;;;;;;;28.85;22.60;;;14.80;67.90;;;;;;5137439;27;20046;-67
2022/01/01 04:09:52;;;;;;;27.27;22.00;;;14.80;68.20;;;;;;5137021;27;20038;-67
2022/01/01 04:12:17;;;;;;;27.42;22.27;;;14.80;68.00;;;;;;5155920;27;20071;-67
2022/01/01 04:14:43;;;;;;;25.73;20.80;;;14.80;68.00;;;;;;5137342;27;20047;-67
2022/01/01 04:17:11;;;;;;;27.02;21.77;;;14.80;67.90;;;;;;5155271;27;20039;-67
2022/01/01 04:19:39;;;;;;;28.85;22.40;;;14.80;67.90;;;;;;5155609;27;20038;-67
2022/01/01 04:22:17;;;;;;;27.70;21.65;;;14.80;67.90;;;;;;5136881;27;20034;-67
2022/01/01 04:24:45;;;;;;;25.63;21.35;;;14.80;67.90;;;;;;5155473;27;20053;-67
2022/01/01 04:27:11;;;;;;;25.42;20.73;;;14.80;67.90;;;;;;5137066;27;20054;-67
2022/01/01 04:29:38;;;;;;;26.45;21.60;;;14.80;67.90;;;;;;5155338;27;20035;-67
2022/01/01 04:32:04;;;;;;;27.60;22.45;;;14.80;67.90;;;;;;5136972;27;20070;-67
2022/01/01 04:34:30;;;;;;;28.20;21.00;;;14.80;67.90;;;;;;5136863;27;20039;-67
2022/01/01 04:37:02;;;;;;;27.80;21.98;;;14.80;67.90;;;;;;5136569;27;20038;-67
2022/01/01 04:39:28;;;;;;;27.92;20.95;;;14.80;67.90;;;;;;5154268;27;20038;-67
2022/01/01 04:41:54;;;;;;;26.52;20.77;;;14.80;67.90;;;;;;5136553;27;20038;-67
2022/01/01 04:44:20;;;;;;;30.08;23.02;;;14.80;67.80;;;;;;5136607;27;20042;-67
2022/01/01 04:46:46;;;;;;;26.50;20.98;;;14.80;67.80;;;;;;5155005;27;20038;-67
2022/01/01 04:49:11;;;;;;;27.05;20.90;;;14.80;67.80;;;;;;5136241;27;20504;-67
2022/01/01 04:51:37;;;;;;;27.52;21.60;;;14.80;67.80;;;;;;5136627;27;20121;-67
2022/01/01 04:54:09;;;;;;;29.10;22.50;;;14.80;67.70;;;;;;5154980;27;20440;-67
2022/01/01 04:56:36;;;;;;;24.08;20.55;;;14.80;67.80;;;;;;5136311;27;20046;-67
2022/01/01 04:59:03;;;;;;;27.77;20.55;;;14.80;67.80;;;;;;5136209;27;20070;-67
2022/01/01 05:01:28;;;;;;;28.17;20.95;;;14.80;67.70;;;;;;5136493;27;20049;-67
2022/01/01 05:03:59;;;;;;;26.33;21.30;;;14.80;67.70;;;;;;5136549;27;20377;-67
2022/01/01 05:06:25;;;;;;;28.08;21.30;;;14.80;67.70;;;;;;5136408;27;20050;-67
2022/01/01 05:08:50;;;;;;;27.30;21.58;;;14.80;67.80;;;;;;5154557;27;20613;-67
2022/01/01 05:11:19;;;;;;;26.35;21.58;;;14.80;67.70;;;;;;5136241;27;20087;-67
2022/01/01 05:13:44;;;;;;;26.73;20.65;;;14.80;67.80;;;;;;5154591;27;20478;-67
2022/01/01 05:16:17;;;;;;;25.38;19.92;;;14.80;67.70;;;;;;5154128;27;20146;-67
2022/01/01 05:18:43;;;;;;;27.98;20.67;;;14.80;67.70;;;;;;5154371;27;20462;-67
2022/01/01 05:21:13;;;;;;;28.05;21.00;;;14.80;67.80;;;;;;5135927;27;20462;-67
2022/01/01 05:23:38;;;;;;;24.88;19.77;;;14.80;67.80;;;;;;5154318;27;20027;-67
2022/01/01 05:26:04;;;;;;;26.73;20.08;;;14.80;67.80;;;;;;5135921;27;20049;-67
2022/01/01 05:28:30;;;;;;;24.98;20.90;;;14.80;67.90;;;;;;5135977;27;20363;-67
2022/01/01 05:30:56;;;;;;;26.15;19.88;;;14.80;67.90;;;;;;5135595;27;20046;-67
2022/01/01 05:33:21;;;;;;;23.52;19.40;;;14.80;67.90;;;;;;5154051;27;20155;-67
2022/01/01 05:35:47;;;;;;;26.67;19.83;;;14.80;67.90;;;;;;5135646;27;20382;-67
2022/01/01 05:38:13;;;;;;;23.77;18.88;;;14.80;67.90;;;;;;5135618;27;20035;-67
2022/01/01 05:40:38;;;;;;;23.00;19.15;;;14.80;67.90;;;;;;5154151;27;20034;-67
2022/01/01 05:43:06;;;;;;;26.30;18.77;;;14.80;67.90;;;;;;5135875;27;20403;-67
2022/01/01 05:45:32;;;;;;;24.42;18.80;;;14.80;67.90;;;;;;5135614;27;20046;-67
2022/01/01 05:47:57;;;;;;;24.50;17.98;;;14.80;67.90;;;;;;5153895;27;20473;-67
2022/01/01 05:50:23;;;;;;;21.63;16.45;;;14.80;68.00;;;;;;5153624;27;20125;-67
2022/01/01 05:52:49;;;;;;;22.63;17.70;;;14.80;68.00;;;;;;5135567;27;20367;-67
2022/01/01 05:55:15;;;;;;;22.20;17.15;;;14.80;68.00;;;;;;5135189;27;20442;-67
2022/01/01 05:57:41;;;;;;;24.83;16.83;;;14.80;68.00;;;;;;5135481;27;20075;-67
2022/01/01 06:00:07;;;;;;;21.02;15.88;;;14.80;68.00;;;;;;5135215;27;20413;-67
2022/01/01 06:02:41;;;;;;;21.70;17.20;;;14.80;68.00;;;;;;5153680;27;20380;-67
2022/01/01 06:05:08;;;;;;;22.80;17.10;;;14.80;68.00;;;;;;5135373;27;20082;-67
2022/01/01 06:07:33;;;;;;;22.00;16.95;;;14.80;68.00;;;;;;5153762;27;20402;-67
2022/01/01 06:09:59;;;;;;;21.27;16.77;;;14.80;68.00;;;;;;5135312;27;20042;-67
2022/01/01 06:12:25;;;;;;;20.98;17.27;;;14.80;68.00;;;;;;5135040;27;20065;-67
2022/01/01 06:14:51;;;;;;;21.75;15.73;;;14.80;68.00;;;;;;5135189;27;20054;-67
2022/01/01 06:17:17;;;;;;;23.38;16.73;;;14.80;68.00;;;;;;5134593;27;20046;-67
2022/01/01 06:19:42;;;;;;;21.67;16.15;;;14.80;67.90;;;;;;5134923;27;20043;-67
2022/01/01 06:22:09;;;;;;;22.33;16.05;;;14.80;67.90;;;;;;5153770;27;20050;-67
2022/01/01 06:24:34;;;;;;;18.90;14.40;;;14.80;67.90;;;;;;5135135;27;20038;-67
2022/01/01 06:27:00;;;;;;;20.52;15.52;;;14.80;67.90;;;;;;5134873;27;20118;-67
2022/01/01 06:29:28;;;;;;;21.00;14.68;;;14.80;68.00;;;;;;5135095;27;20079;-67
2022/01/01 06:31:54;;;;;;;17.83;14.07;;;14.80;68.00;;;;;;5153315;27;20035;-67
2022/01/01 06:34:23;;;;;;;22.02;16.17;;;14.70;68.00;;;;;;5153323;27;20038;-67
2022/01/01 06:36:51;;;;;;;22.05;15.93;;;14.80;68.00;;;;;;5134751;27;20042;-67
2022/01/01 06:39:17;;;;;;;21.10;15.27;;;14.80;68.00;;;;;;5135167;27;20057;-67
2022/01/01 06:41:43;;;;;;;19.58;14.07;;;14.80;68.00;;;;;;5153748;27;20058;-67
2022/01/01 06:44:08;;;;;;;17.83;15.65;;;14.80;68.00;;;;;;5135087;27;20602;-67
2022/01/01 06:46:34;;;;;;;20.27;14.60;;;14.80;68.00;;;;;;5153261;27;20047;-67
2022/01/01 06:49:03;;;;;;;19.63;14.73;;;14.80;68.00;;;;;;5153146;27;20046;-67
2022/01/01 06:51:28;;;;;;;19.15;13.52;;;14.80;68.00;;;;;;5134739;27;20059;-67
2022/01/01 06:53:54;;;;;;;17.70;13.48;;;14.80;67.90;;;;;;5134906;27;20089;-67
2022/01/01 06:56:23;;;;;;;19.88;14.60;;;14.80;68.00;;;;;;5134609;27;20034;-67
2022/01/01 06:58:48;;;;;;;16.35;13.40;;;14.80;67.90;;;;;;5134543;27;20039;-67
2022/01/01 07:01:14;;;;;;;18.48;13.88;;;14.80;67.90;;;;;;5134601;27;20087;-67
2022/01/01 07:03:42;;;;;;;16.95;14.25;;;14.80;68.00;;;;;;5155549;27;20087;-67
2022/01/01 07:06:08;;;;;;;20.40;14.10;;;14.80;68.00;;;;;;5138454;27;20049;-67
2022/01/01 07:08:33;;;;;;;19.73;13.80;;;14.80;68.00;;;;;;5138624;27;20043;-67
2022/01/01 07:11:03;;;;;;;16.92;13.05;;;14.80;67.90;;;;;;5138427;27;20397;-67
2022/01/01 07:13:28;;;;;;;16.33;12.77;;;14.80;67.90;;;;;;5138232;27;20043;-67
2022/01/01 07:15:54;;;;;;;16.08;12.85;;;14.80;67.90;;;;;;5156726;27;20119;-67
2022/01/01 07:18:19;;;;;;;15.55;12.30;;;14.80;68.00;;;;;;5156344;27;20057;-68
2022/01/01 07:20:45;;;;;;;14.85;12.75;;;14.80;67.90;;;;;;5157088;27;20054;-67
2022/01/01 07:23:11;;;;;;;19.17;12.77;;;14.80;67.90;;;;;;5138148;27;20047;-67
2022/01/01 07:25:36;;;;;;;17.17;13.23;;;14.80;68.00;;;;;;5156741;27;20068;-67
2022/01/01 07:28:05;;;;;;;17.30;12.90;;;14.80;68.00;;;;;;5156676;27;20134;-67
2022/01/01 07:30:31;;;;;;;14.57;12.18;;;14.80;68.00;;;;;;5156491;27;20031;-67
2022/01/01 07:32:56;;;;;;;18.77;12.35;;;14.80;67.90;;;;;;5156372;27;20586;-67
2022/01/01 07:35:22;;;;;;;15.82;11.88;;;14.80;68.00;;;;;;5137999;27;20052;-68
2022/01/01 07:37:49;;;;;;;15.02;11.63;;;14.80;67.90;;;;;;5156418;27;20099;-67
2022/01/01 07:40:17;;;;;;;14.93;12.30;;;14.80;67.90;;;;;;5138072;27;20050;-67
2022/01/01 07:42:43;;;;;;;17.83;12.57;;;14.80;67.90;;;;;;5156503;27;20121;-67
2022/01/01 07:45:10;;;;;;;14.18;11.48;;;14.80;68.00;;;;;;5138152;27;20039;-67
2022/01/01 07:47:36;;;;;;;15.32;11.60;;;14.80;67.90;;;;;;5137896;27;20039;-67
2022/01/01 07:50:05;;;;;;;12.95;11.63;;;14.80;68.00;;;;;;5137830;27;20050;-67
2022/01/01 07:52:30;;;;;;;14.55;12.00;;;14.80;68.00;;;;;;5138083;27;20482;-67
2022/01/01 07:54:59;;;;;;;17.45;12.32;;;14.80;68.00;;;;;;5137638;27;20050;-67
2022/01/01 07:57:24;;;;;;;15.80;11.82;;;14.80;68.00;;;;;;5137401;27;20486;-67
2022/01/01 07:59:50;;;;;;;18.23;12.32;;;14.80;68.00;;;;;;5155857;27;20039;-67
2022/01/01 08:02:18;;;;;;;13.20;10.88;;;14.80;68.00;;;;;;5137706;27;20130;-67
2022/01/01 08:04:45;;;;;;;14.55;11.38;;;14.80;68.00;;;;;;5137170;27;20042;-67
2022/01/01 08:07:11;;;;;;;15.48;11.65;;;14.80;68.00;;;;;;5155881;27;20039;-67
2022/01/01 08:09:38;;;;;;;14.85;11.48;;;14.80;68.00;;;;;;5155796;27;20042;-67
2022/01/01 08:12:07;;;;;;;13.95;10.95;;;14.80;68.00;;;;;;5156029;27;20038;-67
2022/01/01 08:14:33;;;;;;;16.63;11.85;;;14.80;68.00;;;;;;5155508;27;20060;-68
2022/01/01 08:17:02;;;;;;;15.93;11.40;;;14.80;68.00;;;;;;5155199;27;20050;-67
2022/01/01 08:19:28;;;;;;;13.95;10.90;;;14.80;68.00;;;;;;5155790;27;20286;-67
2022/01/01 08:21:55;;;;;;;12.48;11.18;;;14.80;68.00;;;;;;5155377;27;20083;-67
2022/01/01 08:24:22;;;;;;;12.68;10.45;;;14.80;68.10;;;;;;5137202;27;20057;-67
2022/01/01 08:26:48;;;;;;;14.68;10.85;;;14.80;68.00;;;;;;5155499;27;20081;-67
2022/01/01 08:29:14;;;;;;;18.08;12.07;;;14.80;68.00;;;;;;5155378;27;20088;-67
2022/01/01 08:31:40;;;;;;;16.98;12.00;;;14.80;68.00;;;;;;5136796;27;20039;-67
2022/01/01 08:34:06;;;;;;;17.05;12.13;;;14.80;68.00;;;;;;5155254;27;20041;-67
2022/01/01 08:36:31;;;;;;;17.55;10.88;;;14.80;68.00;;;;;;5136526;27;20494;-67
2022/01/01 08:38:57;;;;;;;15.20;11.00;;;14.80;68.00;;;;;;5136996;27;20129;-67
2022/01/01 08:41:23;;;;;;;17.15;12.20;;;14.80;67.90;;;;;;5136821;27;20026;-67
2022/01/01 08:43:48;;;;;;;12.60;10.77;;;14.80;67.90;;;;;;5136842;27;20561;-67
2022/01/01 08:46:17;;;;;;;11.98;10.35;;;14.80;68.00;;;;;;5154988;27;20487;-67
2022/01/01 08:48:42;;;;;;;13.48;10.15;;;14.80;68.00;;;;;;5154981;27;20046;-67
2022/01/01 08:51:23;;;;;;;15.57;10.70;;;14.80;67.90;;;;;;5154998;27;20034;-68
2022/01/01 08:53:49;;;;;;;;;;;14.80;67.90;;;;;;5136878;27;20055;-67
2022/01/01 08:56:15;;;;;;;14.40;10.02;;;14.80;67.90;;;;;;5136334;27;19923;-67
2022/01/01 08:58:41;;;;;;;15.65;10.95;;;14.80;67.90;;;;;;5136605;27;20045;-67
2022/01/01 09:01:08;;;;;;;15.23;11.10;;;14.80;67.90;;;;;;5154812;27;20102;-67
2022/01/01 09:03:35;;;;;;;14.05;10.80;;;14.80;67.90;;;;;;5154661;27;20126;-67
2022/01/01 09:06:02;;;;;;;13.43;10.88;;;14.80;67.90;;;;;;5136468;27;20389;-67
2022/01/01 09:08:29;;;;;;;15.57;10.77;;;14.80;67.90;;;;;;5136287;27;20049;-67
2022/01/01 09:10:55;;;;;;;11.45;9.65;;;14.80;67.90;;;;;;5154638;27;20113;-67
2022/01/01 09:13:20;;;;;;;14.82;9.93;;;14.90;67.90;;;;;;5135979;27;20675;-67
2022/01/01 09:15:46;;;;;;;15.25;10.25;;;14.90;67.90;;;;;;5136107;27;20042;-67
2022/01/01 09:18:12;;;;;;;12.23;9.98;;;14.80;67.80;;;;;;5135569;27;20126;-66
2022/01/01 09:20:37;;;;;;;14.25;10.43;;;14.90;67.90;;;;;;5135754;27;20043;-67
2022/01/01 09:23:04;;;;;;;14.65;10.30;;;14.90;67.90;;;;;;5136222;27;20046;-67
2022/01/01 09:25:29;;;;;;;13.65;10.45;;;14.90;67.90;;;;;;5135271;27;20516;-67
2022/01/01 09:27:55;;;;;;;14.55;10.43;;;14.90;67.80;;;;;;5154269;27;20078;-67
2022/01/01 09:30:20;;;;;;;11.35;9.15;;;14.90;67.70;;;;;;5154291;27;20077;-67
2022/01/01 09:32:49;;;;;;;12.05;9.45;;;14.90;67.70;;;;;;5153926;27;20122;-67
2022/01/01 09:35:16;;;;;;;12.85;9.77;;;14.90;67.60;;;;;;5135988;27;20046;-67
2022/01/01 09:37:42;;;;;;;11.32;9.43;;;15.00;67.60;;;;;;5135384;27;20050;-67
2022/01/01 09:40:12;;;;;;;12.23;9.60;;;15.00;67.60;;;;;;5154084;27;20356;-67
2022/01/01 09:42:39;;;;;;;15.52;10.75;;;15.00;67.60;;;;;;5135681;27;20049;-67
2022/01/01 09:45:06;;;;;;;13.18;8.55;;;15.00;67.60;;;;;;5153917;27;20141;-67
2022/01/01 09:47:32;;;;;;;14.00;9.75;;;15.00;67.60;;;;;;5135609;27;20423;-67
2022/01/01 09:49:58;;;;;;;14.77;9.38;;;15.00;67.50;;;;;;5153770;27;20047;-68
2022/01/01 09:52:24;;;;;;;10.55;9.43;;;15.00;67.50;;;;;;5135348;27;20034;-67
2022/01/01 09:54:51;;;;;;;12.98;8.65;;;15.00;67.50;;;;;;5134791;27;20070;-67
2022/01/01 09:57:17;;;;;;;12.32;8.10;;;15.00;67.50;;;;;;5154136;27;20071;-66
2022/01/01 09:59:43;;;;;;;11.50;9.13;;;15.00;67.50;;;;;;5153656;27;20042;-67
2022/01/01 10:02:09;;;;;;;11.13;8.20;;;15.00;67.40;;;;;;5135100;27;20027;-67
2022/01/01 10:07:28;;;;;;;11.13;8.55;;;15.10;67.40;;;;;;5089413;28;21013;-67
2022/01/01 10:09:53;;;;;;;11.18;8.20;;;15.10;67.40;;;;;;5088036;28;20487;-67
2022/01/01 10:12:19;;;;;;;10.15;7.70;;;15.10;67.40;;;;;;5088138;28;20135;-68
2022/01/01 10:14:48;;;;;;;10.95;7.95;;;15.10;67.40;;;;;;5088099;28;20088;-68
2022/01/01 10:17:22;;;;;;;9.98;7.32;;;15.10;67.40;;;;;;5087978;28;20045;-67
2022/01/01 10:19:50;;;;;;;10.25;7.78;;;15.10;67.40;;;;;;5088144;28;20040;-67
2022/01/01 10:22:19;;;;;;;10.65;7.63;;;15.00;67.30;;;;;;5089260;28;20046;-67
2022/01/01 10:27:43;;;;;;;9.40;6.57;;;15.10;67.40;;;;;;5088914;28;20048;-67
2022/01/01 10:30:18;;;;;;;11.75;7.30;;;15.00;67.30;;;;;;5088999;28;20047;-67
2022/01/01 10:33:16;;;;;;;8.27;7.00;;;15.00;67.40;;;;;;5088140;28;20486;-67
2022/01/01 10:35:44;;;;;;;11.43;7.40;;;15.00;67.40;;;;;;5087616;28;20048;-67
2022/01/01 10:38:17;;;;;;;10.13;7.03;;;15.10;67.40;;;;;;5087875;28;20071;-67
2022/01/01 10:40:44;;;;;;;8.57;6.57;;;15.10;67.40;;;;;;5087713;28;20384;-67
2022/01/01 10:43:10;;;;;;;9.48;7.05;;;15.10;67.40;;;;;;5088971;28;20441;-67
2022/01/01 10:45:41;;;;;;;10.52;7.28;;;15.00;67.30;;;;;;5087469;28;20048;-67
2022/01/01 10:48:18;;;;;;;9.43;6.22;;;15.00;67.40;;;;;;5087738;28;20364;-67
2022/01/01 10:50:46;;;;;;;9.15;7.28;;;15.00;67.30;;;;;;5088574;28;20059;-67
2022/01/01 10:53:15;;;;;;;10.10;6.95;;;15.10;67.40;;;;;;5087624;28;20033;-67
2022/01/01 10:55:43;;;;;;;8.63;6.72;;;15.10;67.40;;;;;;5087450;28;20484;-67
2022/01/01 10:58:15;;;;;;;8.40;6.90;;;15.00;67.30;;;;;;5087591;28;20048;-67
2022/01/01 11:00:42;;;;;;;8.65;6.15;;;15.10;67.40;;;;;;5087061;28;20043;-67
2022/01/01 11:03:09;;;;;;;10.88;6.70;;;15.10;67.30;;;;;;5087098;28;20049;-67
2022/01/01 11:05:38;;;;;;;8.50;6.90;;;15.10;67.30;;;;;;5086903;28;20082;-67
2022/01/01 11:08:06;;;;;;;9.15;6.38;;;15.10;67.40;;;;;;5088461;28;20044;-69
2022/01/01 11:10:32;;;;;;;9.55;5.85;;;15.10;67.30;;;;;;5087162;28;20044;-69
2022/01/01 11:12:59;;;;;;;10.05;6.50;;;15.00;67.30;;;;;;5088269;28;20514;-69
2022/01/01 11:15:26;;;;;;;6.35;5.68;;;15.00;67.20;;;;;;5088245;28;20070;-69
2022/01/01 11:17:52;;;;;;;10.52;6.43;;;15.00;67.60;;;;;;5077787;28;20044;-70
2022/01/01 11:20:19;;;;;;;9.30;6.28;;;15.10;67.30;;;;;;5073267;28;20044;-69
2022/01/01 11:22:45;;;;;;;7.90;5.35;;;15.10;67.30;;;;;;5074697;28;20040;-69
2022/01/01 11:25:11;;;;;;;9.38;5.97;;;15.00;68.00;;;;;;5073244;28;20112;-69
2022/01/01 11:27:37;;;;;;;9.05;5.57;;;15.10;67.30;;;;;;5073149;28;20119;-69
2022/01/01 11:30:05;;;;;;;8.25;5.38;;;15.00;67.20;;;;;;5073198;28;20043;-69
2022/01/01 11:35:22;;;;;;;6.10;5.10;;;15.00;67.20;;;;;;5109714;27;20304;-68
2022/01/01 11:40:58;;;;;;;6.80;5.13;;;15.10;67.20;;;;;;5155291;27;1154337;-67
2022/01/01 11:46:16;;;;;;;9.02;5.70;;;15.10;67.20;;;;;;5130188;27;20309;-67
2022/01/01 11:57:08;;;;;;;7.63;5.23;;;15.10;67.20;;;;;;5152829;27;1162785;-67
2022/01/01 12:10:32;;;;;;;8.43;5.22;;;15.10;66.90;;;;;;5130212;27;20403;-67
2022/01/01 12:15:45;;;;;;;8.30;5.03;;;15.20;66.90;;;;;;5153250;27;1154582;-67
2022/01/01 12:18:14;;;;;;;7.25;4.80;;;15.20;66.90;;;;;;5153251;27;20264;-67
2022/01/01 12:26:07;;;;;;;7.32;4.53;;;15.20;67.70;;;;;;5130364;27;20411;-67
2022/01/01 12:28:38;;;;;;;6.30;4.10;;;15.20;67.00;;;;;;5129211;28;20461;-67
2022/01/01 12:31:05;;;;;;;;;;;15.20;67.00;;;;;;5129673;28;20039;-67
2022/01/01 12:36:22;;;;;;;6.50;4.28;;;15.20;67.00;;;;;;5130273;27;20399;-67
2022/01/01 12:46:55;;;;;;;4.90;3.58;;;15.20;67.00;;;;;;5130329;27;20755;-67
2022/01/01 12:49:21;;;;;;;5.43;4.22;;;15.20;67.00;;;;;;5129129;28;20053;-67
2022/01/01 12:51:51;;;;;;;6.50;4.38;;;15.10;66.90;;;;;;5129254;28;20118;-67
2022/01/01 12:54:18;;;;;;;4.95;3.90;;;15.10;67.00;;;;;;5129092;27;20110;-67
2022/01/01 12:56:47;;;;;;;6.30;3.58;;;15.20;67.00;;;;;;5128821;28;20513;-67
2022/01/01 12:59:16;;;;;;;5.65;4.20;;;15.10;66.90;;;;;;5130238;27;20031;-67
2022/01/01 13:01:47;;;;;;;5.57;3.58;;;15.20;67.00;;;;;;5128258;28;20441;-67
2022/01/01 13:06:57;;;;;;;6.82;3.83;;;15.20;67.00;;;;;;5150881;27;20111;-67
2022/01/01 13:09:24;;;;;;;5.18;3.33;;;15.20;67.00;;;;;;5129145;28;20119;-67
2022/01/01 13:12:04;;;;;;;5.03;4.03;;;15.10;66.90;;;;;;5130242;27;20037;-67
2022/01/01 13:14:35;;;;;;;5.60;4.00;;;15.20;66.90;;;;;;5125717;28;20031;-67
2022/01/01 13:17:02;;;;;;;6.95;4.18;;;15.20;66.90;;;;;;5125395;28;20042;-68
2022/01/01 13:19:30;;;;;;;6.15;3.30;;;15.20;66.90;;;;;;5108319;28;20050;-67
2022/01/01 13:21:56;;;;;;;4.90;3.15;;;15.20;66.90;;;;;;5109392;28;20064;-67
2022/01/01 13:24:23;;;;;;;6.57;3.53;;;15.20;66.90;;;;;;5109674;28;20035;-67
2022/01/01 13:26:49;;;;;;;5.45;3.47;;;15.20;67.00;;;;;;5109533;28;20044;-67
2022/01/01 13:29:15;;;;;;;6.20;3.90;;;15.20;66.90;;;;;;5109588;28;20040;-67
2022/01/01 13:31:44;;;;;;;5.43;3.70;;;15.20;66.90;;;;;;5125017;28;20040;-67